Excadrill

Excadrill
0 Ratings
Card # / Rarity 96 / Rare
Type / Stage Metal / Stage 1
Attacks

[M] Drill Run (20)
Flip a coin. If heads, discard an Energy attached to your opponent's Active Pokemon.

[M2] Straight Claw (60+)
You may disard an Energy attached to this Pokemon. If you do, this attack does 30 more damage.

Other Rx2 / P-20 / 2
Set Primal Clash
Character(s) Excadrill /
Current Price

$0.28 47.37%

Last 7 Days 0.00%
Last 30 Days 0%
YTD -12.50%
PRIMAL CLASH
TOP 10

PRICE HISTORY


Date
Price
Trend
2024-07-20 20:00:00<.span> Jul 20th, 2024 8PM $0.28 -
2024-07-20 06:00:00<.span> Jul 20th, 2024 6AM $0.27 $-0.01
2024-07-16 20:00:00<.span> Jul 16th, 2024 8PM $0.28 $0.01
2024-07-14 06:00:00<.span> Jul 14th, 2024 6AM $0.29 $0.01
2024-07-13 16:00:00<.span> Jul 13th, 2024 4PM $0.28 $-0.01
2024-07-09 20:00:00<.span> Jul 9th, 2024 8PM $0.29 $0.01
2024-07-08 00:00:00<.span> Jul 8th, 2024 12AM $0.27 $-0.02
2024-06-19 04:00:00<.span> Jun 19th, 2024 4AM $0.26 $-0.01
2024-06-18 20:00:00<.span> Jun 18th, 2024 8PM $0.24 $-0.02
2024-05-29 06:00:00<.span> May 29th, 2024 6AM $0.26 $0.02
2024-05-20 14:00:00<.span> May 20th, 2024 2PM $0.27 $0.01
2024-05-16 06:00:00<.span> May 16th, 2024 6AM $0.28 $0.01
2024-04-28 06:00:00<.span> Apr 28th, 2024 6AM $0.30 $0.02
2024-04-21 16:00:00<.span> Apr 21st, 2024 4PM $0.31 $0.01
2024-04-15 16:00:00<.span> Apr 15th, 2024 4PM $0.30 $-0.01
2024-04-12 06:00:00<.span> Apr 12th, 2024 6AM $0.36 $0.06
2024-04-10 18:00:00<.span> Apr 10th, 2024 6PM $0.35 $-0.01
2024-04-09 06:00:00<.span> Apr 9th, 2024 6AM $0.30 $-0.05
2024-03-25 06:00:00<.span> Mar 25th, 2024 6AM $0.29 $-0.01
2024-03-02 06:00:00<.span> Mar 2nd, 2024 6AM $0.28 $-0.01
2024-02-21 08:00:00<.span> Feb 21st, 2024 8AM $0.31 $0.03
2024-02-13 02:00:00<.span> Feb 13th, 2024 2AM $0.30 $-0.01
2024-02-02 08:00:00<.span> Feb 2nd, 2024 8AM $0.31 $0.01
2024-01-26 08:00:00<.span> Jan 26th, 2024 8AM $0.32 $0.01
2023-11-27 06:00:00<.span> Nov 27th, 2023 6AM $0.31 $-0.01
2023-11-18 02:00:00<.span> Nov 18th, 2023 2AM $0.30 $-0.01
2023-11-09 00:00:00<.span> Nov 9th, 2023 12AM $0.29 $-0.01
2023-10-31 10:00:00<.span> Oct 31st, 2023 10AM $0.31 $0.02
2023-10-14 06:00:00<.span> Oct 14th, 2023 6AM $0.29 $-0.02
2023-09-27 00:00:00<.span> Sep 27th, 2023 12AM $0.30 $0.01
2023-09-09 06:00:00<.span> Sep 9th, 2023 6AM $0.31 $0.01
2023-09-03 22:00:00<.span> Sep 3rd, 2023 10PM $0.33 $0.02
2023-09-03 14:00:00<.span> Sep 3rd, 2023 2PM $0.31 $-0.02
2023-08-26 20:00:00<.span> Aug 26th, 2023 8PM $0.29 $-0.02
2023-08-25 04:00:00<.span> Aug 25th, 2023 4AM $0.30 $0.01
2023-08-11 06:00:00<.span> Aug 11th, 2023 6AM $0.31 $0.01
2023-08-06 00:00:00<.span> Aug 6th, 2023 12AM $0.29 $-0.02
2023-07-30 04:00:00<.span> Jul 30th, 2023 4AM $0.27 $-0.02
2023-07-22 06:00:00<.span> Jul 22nd, 2023 6AM $0.30 $0.03
2023-07-16 08:00:00<.span> Jul 16th, 2023 8AM $0.31 $0.01
2023-06-30 06:00:00<.span> Jun 30th, 2023 6AM $0.30 $-0.01
2023-06-23 06:00:00<.span> Jun 23rd, 2023 6AM $0.29 $-0.01
2023-05-31 04:00:00<.span> May 31st, 2023 4AM $0.28 $-0.01
2023-05-25 06:00:00<.span> May 25th, 2023 6AM $0.29 $0.01
2023-05-21 22:00:00<.span> May 21st, 2023 10PM $0.26 $-0.03
2023-05-21 20:00:00<.span> May 21st, 2023 8PM $0.26 -
2023-05-21 18:00:00<.span> May 21st, 2023 6PM $0.26 -
2023-05-21 16:00:00<.span> May 21st, 2023 4PM $0.26 -
2023-05-21 14:00:00<.span> May 21st, 2023 2PM $0.26 -
2023-05-21 12:00:00<.span> May 21st, 2023 12PM $0.26 -
Name
Set
Rarity
Price
Trend
Excadrill Excadrill Excadrill Unified Minds Rare $ 0.35 29.63%
Excadrill Excadrill Excadrill Cosmic Eclipse Holo Rare $ 0.49 2.08%
Excadrill (Secret) Excadrill Secret Excadrill Secret Cosmic Eclipse Secret Rare $ 1.69 0.60%
Excadrill Excadrill Excadrill Vivid Voltage Uncommon $ 0.03 50.00%
Excadrill Excadrill Excadrill Fusion Strike Uncommon $ 0.16 6.67%
Excadrill Excadrill Excadrill Obsidian Flames Uncommon $ 0.04 33.33%
Excadrill - 086/162 Excadrill 086 162 Excadrill 086 162 Temporal Forces Uncommon $ 0.07 -12.50%
Excadrill - 174/162 Excadrill 174 162 Excadrill 174 162 Temporal Forces Illustration Rare $ 2.57 -1.53%
Excadrill (56) Excadrill 56 Excadrill 56 Emerging Powers Holo Rare $ 1.13 -19.86%
Excadrill (57) Excadrill 57 Excadrill 57 Emerging Powers Rare $ 0.69 1.47%
Excadrill Excadrill Rare Excadrill Rare Dark Explorers Rare $ 0.42 -4.55%
Excadrill Excadrill Excadrill Dark Explorers Rare $ 0.59 9.26%
Excadrill EX Excadrill EX Excadrill EX Legendary Treasures Ultra Rare $ 3.44 -0.58%
Excadrill Excadrill Excadrill Primal Clash Rare $ 0.28 3.70%
Excadrill (Omega) Excadrill Omega Excadrill Omega Primal Clash Holo Rare $ 1.13 3.67%
Energy Switch (Excadrill) Energy Switch Excadrill Energy Switch Excadrill BW Trainer Kit: Excadrill & Zoroark Common $ 0.29 45.00%
PlusPower (Excadrill) PlusPower Excadrill PlusPower Excadrill BW Trainer Kit: Excadrill & Zoroark Common $ 0.36 800.00%
Excadrill (#17 Non-Holo) Excadrill 17 Non Holo Excadrill 17 Non Holo BW Trainer Kit: Excadrill & Zoroark Common $ 0.49 4.26%
Excadrill (#30 Holo) Excadrill 30 Holo Excadrill 30 Holo BW Trainer Kit: Excadrill & Zoroark Common $ 0.30 20.00%
Energy Search (Excadrill) Energy Search Excadrill Energy Search Excadrill BW Trainer Kit: Excadrill & Zoroark Common $ 0.00 -100.00%
Pokemon Communication (Excadrill) Pokemon Communication Excadrill Pokemon Communication Excadrill BW Trainer Kit: Excadrill & Zoroark Common $ 0.26 4.00%